Terminal Aerodrome Forecast
Issued by NWS

Home | Current Version | Previous Version | Graphics & Text | Print | Product List | Glossary On
Versions: 1 2 3 4 5 6 7 8 9 10 11 12 13 14
124
FTUS43 KIWX 182332
TAFSBN
TAF
KSBN 182332Z 1900/1924 29005KT P6SM SCT250
     FM190300 24003KT P6SM SCT050 BKN100
     FM190500 24002KT P6SM VCSH BKN040
     FM191100 VRB02KT P6SM SCT030 BKN080
     FM191600 31007KT P6SM SCT045=

USA.gov is the U.S. government's official web portal to all federal, state and local government web resources and services.